createdAt,value
2019-03-10T00:00:47.114Z,72.88
2019-03-10T00:03:13.183Z,72.83
2019-03-10T00:05:39.227Z,72.74
2019-03-10T00:08:07.724Z,72.60
2019-03-10T00:10:33.485Z,72.43
2019-03-10T00:12:59.547Z,72.10
2019-03-10T00:15:25.734Z,71.74
2019-03-10T00:17:56.703Z,72.20
2019-03-10T00:20:22.800Z,71.85
2019-03-10T00:22:48.874Z,71.94
2019-03-10T00:25:15.128Z,72.43
2019-03-10T00:27:41.094Z,72.12
2019-03-10T00:30:09.728Z,71.96
2019-03-10T00:32:35.913Z,71.66
2019-03-10T00:35:03.135Z,74.06
2019-03-10T00:37:29.287Z,73.99
2019-03-10T00:40:38.851Z,73.30
2019-03-10T00:43:46.058Z,73.26
2019-03-10T00:46:27.855Z,73.56
2019-03-10T00:49:31.162Z,73.17
2019-03-10T00:52:21.764Z,73.85
2019-03-10T00:54:47.947Z,73.36
2019-03-10T00:57:13.988Z,73.15
2019-03-10T00:59:42.944Z,73.01
2019-03-10T01:02:08.927Z,72.94
2019-03-10T01:04:34.955Z,73.07
2019-03-10T01:07:02.134Z,73.49
2019-03-10T01:09:28.270Z,73.57
2019-03-10T01:11:54.401Z,73.38
2019-03-10T01:14:20.607Z,73.27
2019-03-10T01:16:46.728Z,72.89
2019-03-10T01:19:12.893Z,72.79
2019-03-10T01:21:38.948Z,72.83
2019-03-10T01:24:05.130Z,72.95
2019-03-10T01:26:32.624Z,73.27
2019-03-10T01:28:58.922Z,73.44
2019-03-10T01:32:15.412Z,73.18
2019-03-10T01:35:18.276Z,72.88
2019-03-10T01:37:44.434Z,71.96
2019-03-10T01:40:10.397Z,71.17
2019-03-10T01:42:38.554Z,70.83
2019-03-10T01:45:07.696Z,69.35
2019-03-10T01:47:33.947Z,68.94
2019-03-10T01:50:02.017Z,67.83
2019-03-10T01:52:28.231Z,67.52
2019-03-10T01:54:54.320Z,67.58
2019-03-10T01:57:20.339Z,67.39
2019-03-10T01:59:46.444Z,66.59
2019-03-10T02:02:12.622Z,65.47
2019-03-10T02:04:38.764Z,65.59
2019-03-10T02:07:04.824Z,65.97
2019-03-10T02:09:30.947Z,65.58
2019-03-10T02:11:56.926Z,65.50
2019-03-10T02:14:22.892Z,65.21
2019-03-10T02:16:48.926Z,64.16
2019-03-10T02:19:14.983Z,64.00
2019-03-10T02:21:41.232Z,63.80
2019-03-10T02:24:07.277Z,62.42
2019-03-10T02:26:33.493Z,62.85
2019-03-10T02:28:59.709Z,63.33
2019-03-10T02:31:25.793Z,62.86
2019-03-10T02:33:51.927Z,63.20
2019-03-10T02:36:18.247Z,62.15
2019-03-10T02:38:44.372Z,62.64
2019-03-10T02:41:10.554Z,62.86
2019-03-10T02:43:36.777Z,62.88
2019-03-10T02:46:02.894Z,62.27
2019-03-10T02:48:28.941Z,61.82
2019-03-10T02:50:55.204Z,61.33
2019-03-10T02:53:21.157Z,59.84
2019-03-10T02:55:47.325Z,60.56
2019-03-10T02:58:13.467Z,59.87
2019-03-10T03:00:39.650Z,58.64
2019-03-10T03:03:05.811Z,58.95
2019-03-10T03:05:31.881Z,59.60
2019-03-10T03:07:58.122Z,60.00
2019-03-10T03:10:24.240Z,60.26
2019-03-10T03:12:56.327Z,60.37
2019-03-10T03:15:22.253Z,60.29
2019-03-10T03:17:48.187Z,59.89
2019-03-10T03:20:14.260Z,53.81
2019-03-10T03:22:40.286Z,53.09
2019-03-10T03:25:08.346Z,51.23
2019-03-10T03:27:34.527Z,50.86
2019-03-10T03:30:00.631Z,49.48
2019-03-10T03:32:26.838Z,48.65
2019-03-10T03:34:52.808Z,49.34
2019-03-10T03:37:18.830Z,49.52
2019-03-10T03:39:44.873Z,50.60
2019-03-10T03:42:11.027Z,49.83
2019-03-10T03:44:37.054Z,50.41
2019-03-10T03:47:03.120Z,50.90
2019-03-10T03:49:29.164Z,50.77
2019-03-10T03:51:55.233Z,50.79
2019-03-10T03:54:21.176Z,50.71
2019-03-10T03:56:47.110Z,49.79
2019-03-10T03:59:13.025Z,50.72
2019-03-10T04:04:20.626Z,51.41
2019-03-10T04:06:46.720Z,51.33
2019-03-10T04:09:12.668Z,51.51
2019-03-10T04:11:38.654Z,51.16
2019-03-10T04:14:04.627Z,51.08
2019-03-10T04:16:30.550Z,50.48
2019-03-10T04:18:56.471Z,50.62
2019-03-10T04:21:22.522Z,49.16
2019-03-10T04:23:48.653Z,48.06
2019-03-10T04:26:14.694Z,47.74
2019-03-10T04:28:40.848Z,48.49
2019-03-10T04:31:06.938Z,49.32
2019-03-10T04:33:32.848Z,49.92
2019-03-10T04:35:58.786Z,50.04
2019-03-10T04:38:24.804Z,49.96
2019-03-10T04:40:50.746Z,50.52
2019-03-10T04:43:16.681Z,50.21
2019-03-10T04:45:42.584Z,50.60
2019-03-10T04:48:08.746Z,50.90
2019-03-10T04:50:34.771Z,51.31
2019-03-10T04:53:00.740Z,51.16
2019-03-10T04:55:28.581Z,51.69
2019-03-10T04:57:56.445Z,51.80
2019-03-10T05:00:22.371Z,51.76
2019-03-10T05:02:48.320Z,51.61
2019-03-10T05:05:14.383Z,51.91
2019-03-10T05:07:40.333Z,51.80
2019-03-10T05:10:08.657Z,51.49
2019-03-10T05:12:34.586Z,51.87
2019-03-10T05:15:00.555Z,51.20
2019-03-10T05:17:26.592Z,51.43
2019-03-10T05:19:52.524Z,51.23
2019-03-10T05:22:18.427Z,51.45
2019-03-10T05:24:44.490Z,51.24
2019-03-10T05:27:10.415Z,50.91
2019-03-10T05:29:36.341Z,50.39
2019-03-10T05:32:02.306Z,50.47
2019-03-10T05:34:28.319Z,50.55
2019-03-10T05:36:54.251Z,50.73
2019-03-10T05:39:20.178Z,50.26
2019-03-10T05:41:46.113Z,50.54
2019-03-10T05:44:12.030Z,49.74
2019-03-10T05:46:37.987Z,49.49
2019-03-10T05:49:03.914Z,49.37
2019-03-10T05:51:29.926Z,49.43
2019-03-10T05:53:55.838Z,49.06
2019-03-10T05:56:21.749Z,49.49
2019-03-10T05:58:47.670Z,49.65
2019-03-10T06:01:13.582Z,49.54
2019-03-10T06:03:39.598Z,49.60
2019-03-10T06:06:05.543Z,49.44
2019-03-10T06:08:31.462Z,49.80
2019-03-10T06:10:57.397Z,49.86
2019-03-10T06:13:23.451Z,49.57
2019-03-10T06:15:49.367Z,49.98
2019-03-10T06:18:15.293Z,49.89
2019-03-10T06:20:41.211Z,49.49
2019-03-10T06:23:07.130Z,49.76
2019-03-10T06:25:35.086Z,49.49
2019-03-10T06:28:00.875Z,49.73
2019-03-10T06:30:26.898Z,49.92
2019-03-10T06:32:52.820Z,49.47
2019-03-10T06:35:18.783Z,49.73
2019-03-10T06:37:44.788Z,49.87
2019-03-10T06:40:10.783Z,49.77
2019-03-10T06:42:36.705Z,49.35
2019-03-10T06:45:04.168Z,49.52
2019-03-10T06:47:30.201Z,49.33
2019-03-10T06:49:56.156Z,49.35
2019-03-10T06:52:22.208Z,49.07
2019-03-10T06:54:48.142Z,49.17
2019-03-10T06:57:14.209Z,48.89
2019-03-10T06:59:40.136Z,48.42
2019-03-10T07:02:06.062Z,48.55
2019-03-10T07:04:31.997Z,48.18
2019-03-10T07:06:57.936Z,48.19
2019-03-10T07:09:23.872Z,48.71
2019-03-10T07:11:49.849Z,48.77
2019-03-10T07:14:15.769Z,48.40
2019-03-10T07:16:41.697Z,47.81
2019-03-10T07:19:07.614Z,47.85
2019-03-10T07:21:33.547Z,47.88
2019-03-10T07:23:59.628Z,47.48
2019-03-10T07:26:25.712Z,47.70
2019-03-10T07:28:53.546Z,47.83
2019-03-10T07:31:21.406Z,47.06
2019-03-10T07:33:49.231Z,47.21
2019-03-10T07:36:17.302Z,46.88
2019-03-10T07:39:02.120Z,46.67
2019-03-10T07:44:21.703Z,45.92
2019-03-10T07:46:49.555Z,45.32
2019-03-10T07:49:18.209Z,44.95
2019-03-10T07:51:46.521Z,45.05
2019-03-10T07:54:14.720Z,43.26
2019-03-10T07:56:42.797Z,43.92
2019-03-10T08:01:55.914Z,43.36
2019-03-10T08:07:26.990Z,42.88
2019-03-10T08:12:40.439Z,41.79
2019-03-10T08:15:14.667Z,43.16
2019-03-10T08:17:43.181Z,42.52
2019-03-10T08:20:13.914Z,42.24
2019-03-10T08:22:47.480Z,41.17
2019-03-10T08:25:18.357Z,41.36
2019-03-10T08:28:01.905Z,41.60
2019-03-10T08:30:31.006Z,42.07
2019-03-10T08:33:00.808Z,40.72
2019-03-10T08:35:31.539Z,41.59
2019-03-10T08:38:08.154Z,41.04
2019-03-10T08:40:51.751Z,41.05
2019-03-10T08:43:31.613Z,41.07
2019-03-10T08:45:59.559Z,41.66
2019-03-10T08:48:33.383Z,42.10
2019-03-10T08:51:01.439Z,41.68
2019-03-10T08:53:32.385Z,42.70
2019-03-10T08:56:05.793Z,42.39
2019-03-10T09:01:32.381Z,43.11
2019-03-10T09:04:06.003Z,43.44
2019-03-10T09:06:46.105Z,43.05
2019-03-10T09:12:11.769Z,42.95
2019-03-10T09:14:54.298Z,42.92
2019-03-10T09:17:22.236Z,43.19
2019-03-10T09:22:49.139Z,42.45
2019-03-10T09:25:16.985Z,43.19
2019-03-10T09:28:01.692Z,42.57
2019-03-10T09:33:25.991Z,43.55
2019-03-10T09:35:56.762Z,43.59
2019-03-10T09:41:14.083Z,42.78
2019-03-10T09:43:47.946Z,43.66
2019-03-10T09:46:32.402Z,43.42
2019-03-10T09:49:17.233Z,42.82
2019-03-10T09:51:54.158Z,42.51
2019-03-10T09:54:24.974Z,42.27
2019-03-10T09:57:21.852Z,41.94
2019-03-10T10:00:06.354Z,41.59
2019-03-10T10:02:45.916Z,42.40
2019-03-10T10:05:13.984Z,41.93
2019-03-10T10:07:48.080Z,41.16
2019-03-10T10:10:32.452Z,40.79
2019-03-10T10:16:08.706Z,41.05
2019-03-10T10:18:42.943Z,41.09
2019-03-10T10:21:15.768Z,41.81
2019-03-10T10:23:43.576Z,41.66
2019-03-10T10:26:13.221Z,40.32
2019-03-10T10:28:44.970Z,41.15
2019-03-10T10:31:29.969Z,40.70
2019-03-10T10:34:03.135Z,41.04
2019-03-10T10:36:30.964Z,41.95
2019-03-10T10:39:02.075Z,41.75
2019-03-10T10:41:38.890Z,41.40
2019-03-10T10:44:23.393Z,41.94
2019-03-10T10:46:51.421Z,41.99
2019-03-10T10:49:19.242Z,42.48
2019-03-10T10:51:59.427Z,42.46
2019-03-10T10:54:44.113Z,42.25
2019-03-10T10:57:17.992Z,41.82
2019-03-10T10:59:45.855Z,40.70
2019-03-10T11:02:26.971Z,40.66
2019-03-10T11:05:09.028Z,41.29
2019-03-10T11:07:36.878Z,40.38
2019-03-10T11:10:23.563Z,41.56
2019-03-10T11:12:51.572Z,39.88
2019-03-10T11:15:19.440Z,40.09
2019-03-10T11:20:33.660Z,39.31
2019-03-10T11:23:16.873Z,39.54
2019-03-10T11:25:57.905Z,38.48
2019-03-10T11:35:15.492Z,38.26
2019-03-10T11:37:49.074Z,38.15
2019-03-10T11:40:28.942Z,38.88
2019-03-10T11:43:03.184Z,38.79
2019-03-10T11:48:32.593Z,39.07
2019-03-10T11:51:03.346Z,39.47
2019-03-10T11:53:31.324Z,39.55
2019-03-10T11:56:08.385Z,39.63
2019-03-10T12:01:16.393Z,40.32
2019-03-10T12:03:46.957Z,40.64
2019-03-10T12:06:39.490Z,40.70
2019-03-10T12:09:13.623Z,40.69
2019-03-10T12:11:39.547Z,40.90
2019-03-10T12:14:05.463Z,40.77
2019-03-10T12:16:31.485Z,42.10
2019-03-10T12:18:57.504Z,43.31
2019-03-10T12:21:23.556Z,44.81
2019-03-10T12:23:49.526Z,45.90
2019-03-10T12:26:16.858Z,46.38
2019-03-10T12:28:42.768Z,46.73
2019-03-10T12:31:08.913Z,47.27
2019-03-10T12:33:34.950Z,47.21
2019-03-10T12:36:00.898Z,47.16
2019-03-10T12:38:26.923Z,47.65
2019-03-10T12:40:52.940Z,48.24
2019-03-10T12:43:18.889Z,47.68
2019-03-10T12:45:44.808Z,47.97
2019-03-10T12:48:10.767Z,47.55
2019-03-10T12:50:36.694Z,47.56
2019-03-10T12:53:02.625Z,47.22
2019-03-10T12:55:28.571Z,47.54
2019-03-10T12:57:54.707Z,47.55
2019-03-10T13:00:20.666Z,47.70
2019-03-10T13:02:46.599Z,47.54
2019-03-10T13:05:14.310Z,47.42
2019-03-10T13:07:40.224Z,47.41
2019-03-10T13:10:06.179Z,47.22
2019-03-10T13:12:32.094Z,47.41
2019-03-10T13:14:59.799Z,47.38
2019-03-10T13:17:26.396Z,47.68
2019-03-10T13:19:52.578Z,47.77
2019-03-10T13:22:18.542Z,48.17
2019-03-10T13:24:44.507Z,48.28
2019-03-10T13:27:10.433Z,48.37
2019-03-10T13:29:36.402Z,48.49
2019-03-10T13:32:02.332Z,48.70
2019-03-10T13:34:28.266Z,48.93
2019-03-10T13:36:54.360Z,49.33
2019-03-10T13:39:20.266Z,49.84
2019-03-10T13:41:46.371Z,49.93
2019-03-10T13:44:12.409Z,50.45
2019-03-10T13:46:38.474Z,50.81
2019-03-10T13:49:04.497Z,50.88
2019-03-10T13:51:30.531Z,50.93
2019-03-10T13:53:56.458Z,50.89
2019-03-10T13:56:22.417Z,51.04
2019-03-10T13:58:48.365Z,51.29
2019-03-10T14:01:14.274Z,51.43
2019-03-10T14:03:40.213Z,52.11
2019-03-10T14:06:06.257Z,52.80
2019-03-10T14:08:32.315Z,53.30
2019-03-10T14:10:58.231Z,53.10
2019-03-10T14:13:24.148Z,53.22
2019-03-10T14:15:50.213Z,53.31
2019-03-10T14:18:16.327Z,53.32
2019-03-10T14:20:46.532Z,53.57
2019-03-10T14:23:10.072Z,53.47
2019-03-10T14:25:36.208Z,53.63
2019-03-10T14:28:02.223Z,53.67
2019-03-10T14:30:28.158Z,53.75
2019-03-10T14:32:54.089Z,53.94
2019-03-10T14:35:20.025Z,53.88
2019-03-10T14:37:45.936Z,53.94
2019-03-10T14:40:21.869Z,54.14
2019-03-10T14:42:48.169Z,53.92
2019-03-10T14:45:28.810Z,53.88
2019-03-10T14:48:30.231Z,53.87
2019-03-10T14:50:56.509Z,53.95
2019-03-10T14:53:22.819Z,53.99
2019-03-10T14:55:49.224Z,54.03
2019-03-10T14:58:15.198Z,54.26
2019-03-10T15:00:41.112Z,54.80
2019-03-10T15:03:09.367Z,54.37
2019-03-10T15:05:35.388Z,54.58
2019-03-10T15:08:01.630Z,54.72
2019-03-10T15:10:32.141Z,54.85
2019-03-10T15:12:58.276Z,54.98
2019-03-10T15:15:24.579Z,54.94
2019-03-10T15:17:51.139Z,54.95
2019-03-10T15:20:17.122Z,54.97
2019-03-10T15:22:43.049Z,54.98
2019-03-10T15:25:15.493Z,55.05
2019-03-10T15:27:41.464Z,55.39
2019-03-10T15:30:21.298Z,55.51
2019-03-10T15:32:47.264Z,56.04
2019-03-10T15:35:13.215Z,56.35
2019-03-10T15:37:39.377Z,56.30
2019-03-10T15:40:31.678Z,56.53
2019-03-10T15:42:57.609Z,56.79
2019-03-10T15:45:28.078Z,56.96
2019-03-10T15:47:54.050Z,57.09
2019-03-10T15:50:29.719Z,57.15
2019-03-10T15:52:55.745Z,57.93
2019-03-10T15:55:21.652Z,57.92
2019-03-10T15:57:50.422Z,57.79
2019-03-10T16:00:21.304Z,57.76
2019-03-10T16:02:47.346Z,58.50
2019-03-10T16:05:13.375Z,58.76
2019-03-10T16:07:39.468Z,58.80
2019-03-10T16:10:08.205Z,59.49
2019-03-10T16:12:34.173Z,59.06
2019-03-10T16:15:00.395Z,59.00
2019-03-10T16:17:26.301Z,59.44
2019-03-10T16:19:52.381Z,60.06
2019-03-10T16:22:18.301Z,60.13
2019-03-10T16:24:44.258Z,60.10
2019-03-10T16:27:10.176Z,60.13
2019-03-10T16:29:36.369Z,60.57
2019-03-10T16:32:02.349Z,61.08
2019-03-10T16:34:28.259Z,61.57
2019-03-10T16:36:54.199Z,62.68
2019-03-10T16:39:20.143Z,63.73
2019-03-10T16:41:46.058Z,64.25
2019-03-10T16:44:11.980Z,64.66
2019-03-10T16:46:39.234Z,65.64
2019-03-10T16:49:05.449Z,66.77
2019-03-10T16:51:31.630Z,67.88
2019-03-10T16:53:57.646Z,68.32
2019-03-10T16:56:25.464Z,68.64
2019-03-10T16:58:51.392Z,69.26
2019-03-10T17:01:17.322Z,69.32
2019-03-10T17:03:43.357Z,69.78
2019-03-10T17:06:09.349Z,70.03
2019-03-10T17:08:35.376Z,70.32
2019-03-10T17:11:01.432Z,70.50
2019-03-10T17:13:33.663Z,70.51
2019-03-10T17:15:59.567Z,71.59
2019-03-10T17:18:27.381Z,71.69
2019-03-10T17:20:53.300Z,71.37
2019-03-10T17:23:19.230Z,71.63
2019-03-10T17:25:45.247Z,72.02
2019-03-10T17:28:11.208Z,71.70
2019-03-10T17:30:37.126Z,71.68
2019-03-10T17:33:03.062Z,71.38
2019-03-10T17:35:28.995Z,73.16
2019-03-10T17:37:55.058Z,73.11
2019-03-10T17:40:27.368Z,72.78
2019-03-10T17:42:52.470Z,72.19
2019-03-10T17:45:22.750Z,71.97
2019-03-10T17:47:48.782Z,71.52
2019-03-10T17:50:16.469Z,72.15
2019-03-10T17:52:43.249Z,72.25
2019-03-10T17:55:11.677Z,72.36
2019-03-10T17:57:37.936Z,72.65
2019-03-10T18:00:36.225Z,72.63
2019-03-10T18:03:02.495Z,72.18
2019-03-10T18:05:28.458Z,71.64
2019-03-10T18:07:54.430Z,70.91
2019-03-10T18:10:20.385Z,70.92
2019-03-10T18:12:46.417Z,70.73
2019-03-10T18:15:13.672Z,71.38
2019-03-10T18:17:39.719Z,71.01
2019-03-10T18:20:09.103Z,70.64
2019-03-10T18:22:35.020Z,72.43
2019-03-10T18:25:00.996Z,72.62
2019-03-10T18:27:26.964Z,71.98
2019-03-10T18:29:53.005Z,72.25
2019-03-10T18:32:18.948Z,72.37
2019-03-10T18:34:44.916Z,72.39
2019-03-10T18:37:10.827Z,72.38
2019-03-10T18:39:36.769Z,72.06
2019-03-10T18:42:02.806Z,72.21
2019-03-10T18:44:28.732Z,72.71
2019-03-10T18:46:54.679Z,72.29
2019-03-10T18:49:20.598Z,72.10
2019-03-10T18:51:46.591Z,72.77
2019-03-10T18:54:12.722Z,73.05
2019-03-10T18:56:38.741Z,73.06
2019-03-10T18:59:04.822Z,72.89
2019-03-10T19:01:31.010Z,72.80
2019-03-10T19:03:56.974Z,73.23
2019-03-10T19:06:23.194Z,72.99
2019-03-10T19:08:49.123Z,73.14
2019-03-10T19:11:15.042Z,73.72
2019-03-10T19:13:40.985Z,74.08
2019-03-10T19:16:07.029Z,74.36
2019-03-10T19:18:33.068Z,74.64
2019-03-10T19:20:59.100Z,74.54
2019-03-10T19:23:25.035Z,74.35
2019-03-10T19:25:50.964Z,73.94
2019-03-10T19:28:16.991Z,73.64
2019-03-10T19:30:42.916Z,73.45
2019-03-10T19:33:11.641Z,73.21
2019-03-10T19:35:37.712Z,73.12
2019-03-10T19:38:04.644Z,72.97
2019-03-10T19:40:30.885Z,72.95
2019-03-10T19:42:56.827Z,74.90
2019-03-10T19:45:23.346Z,74.72
2019-03-10T19:47:49.277Z,74.41
2019-03-10T19:50:23.668Z,74.91
2019-03-10T19:52:49.630Z,74.82
2019-03-10T19:55:15.584Z,74.78
2019-03-10T19:57:41.513Z,74.80
2019-03-10T20:38:29.662Z,82.22
2019-03-10T20:40:55.613Z,83.04
2019-03-10T20:43:21.646Z,83.40
2019-03-10T20:45:47.687Z,83.37
2019-03-10T20:48:13.606Z,83.52
2019-03-10T20:50:40.647Z,83.06
2019-03-10T20:53:06.796Z,82.84
2019-03-10T20:55:32.723Z,82.76
2019-03-10T20:57:58.649Z,82.26
2019-03-10T21:00:28.017Z,81.45
2019-03-10T21:02:53.866Z,81.75
2019-03-10T21:05:19.875Z,82.40
2019-03-10T21:07:45.802Z,82.16
2019-03-10T21:10:40.520Z,82.42
2019-03-10T21:13:06.547Z,82.69
2019-03-10T21:15:36.751Z,82.37
2019-03-10T21:18:00.438Z,82.60
2019-03-10T21:20:29.408Z,81.99
2019-03-10T21:22:55.445Z,82.22
2019-03-10T21:25:30.716Z,82.58
2019-03-10T21:27:56.652Z,82.55
2019-03-10T21:30:24.989Z,81.98
2019-03-10T21:32:51.001Z,81.83
2019-03-10T21:35:18.093Z,81.14
2019-03-10T21:37:44.437Z,80.92
2019-03-10T21:40:16.503Z,81.20
2019-03-10T21:42:42.499Z,80.86
2019-03-10T21:45:09.437Z,81.58
2019-03-10T21:47:35.401Z,81.41
2019-03-10T21:50:02.045Z,81.62
2019-03-10T21:52:28.007Z,81.05
2019-03-10T21:54:53.933Z,81.19
2019-03-10T21:57:19.854Z,81.14
2019-03-10T21:59:45.923Z,81.43
2019-03-10T22:02:11.965Z,81.21
2019-03-10T22:04:38.025Z,81.34
2019-03-10T22:07:03.957Z,81.76
2019-03-10T22:09:29.923Z,82.19
2019-03-10T22:11:55.894Z,82.19
2019-03-10T22:14:21.951Z,82.76
2019-03-10T22:16:48.070Z,83.84
2019-03-10T22:19:22.271Z,83.11
2019-03-10T22:21:41.977Z,82.96
2019-03-10T22:24:07.920Z,82.41
2019-03-10T22:26:36.881Z,81.83
2019-03-10T22:29:02.837Z,82.16
2019-03-10T22:31:28.808Z,82.15
2019-03-10T22:33:54.709Z,82.91
2019-03-10T22:36:20.728Z,82.38
2019-03-10T22:38:46.666Z,82.15
2019-03-10T22:41:12.630Z,81.94
2019-03-10T22:43:38.747Z,81.76
2019-03-10T22:46:04.763Z,82.35
2019-03-10T22:48:30.728Z,82.08
2019-03-10T22:50:56.682Z,81.70
2019-03-10T22:53:22.628Z,81.30
2019-03-10T22:55:48.657Z,80.85
2019-03-10T22:58:14.590Z,80.51
2019-03-10T23:00:44.060Z,80.34
2019-03-10T23:03:10.084Z,79.70
2019-03-10T23:05:36.021Z,80.09
2019-03-10T23:08:01.944Z,79.98
2019-03-10T23:10:27.889Z,79.68
2019-03-10T23:12:54.012Z,79.39
2019-03-10T23:15:19.940Z,79.34
2019-03-10T23:17:45.902Z,79.11
2019-03-10T23:20:15.179Z,78.82
2019-03-10T23:22:41.032Z,78.72
2019-03-10T23:25:07.080Z,78.63
2019-03-10T23:27:33.198Z,78.50
2019-03-10T23:29:59.135Z,78.30
2019-03-10T23:32:25.498Z,77.74
2019-03-10T23:34:51.447Z,77.35
2019-03-10T23:37:17.407Z,77.03
2019-03-10T23:39:44.578Z,76.59
2019-03-10T23:42:10.918Z,76.91
2019-03-10T23:44:36.970Z,76.74
2019-03-10T23:47:02.939Z,76.46
2019-03-10T23:49:28.884Z,76.45
2019-03-10T23:51:54.914Z,75.87
2019-03-10T23:54:20.884Z,73.69
2019-03-10T23:56:46.803Z,73.43
2019-03-10T23:59:12.833Z,71.95
